Flight Track Log - Related Links

Times and Time Zones

All times are in EDT time to prevent confusion due to time zone crossing. See the UPS1121 flight status page for this flight to view local times or setup timezone preferences in your user account.

Time Position Orientation Groundspeed Altitude Reporting Facility
EDT Latitude Longitude Course Direction KTS MPH feet Rate Location/Type
Mon 08:39:51 PM 42.7589 -73.8058 North 153 176 1,700  Level Boston Center
Mon 08:40:40 PM 42.7967 -73.8011 North 184 212 3,700 2,867 Climbing Boston Center
Mon 08:41:44 PM 42.7706 -73.7156 113° Southeast 293 337 7,100 3,194 Climbing Boston Center
Mon 08:42:44 PM 42.7106 -73.6578 145° Southeast 306 352 10,300 1,950 Climbing Boston Center
Mon 08:43:44 PM 42.6325 -73.5661 139° Southeast 326 375 11,000 362 Climbing Boston Center
Mon 08:44:40 PM 42.5664 -73.4831 137° Southeast 350 403 11,000  Level Boston Center
Mon 08:45:44 PM 42.4903 -73.3833 136° Southeast 350 403 11,000  Level Boston Center
Mon 08:46:47 PM 42.4139 -73.2864 137° Southeast 355 409 11,000  Level Boston Center
Mon 08:47:44 PM 42.3625 -73.1875 125° Southeast 345 397 11,000 -359 Level Boston Center
Mon 08:48:44 PM 42.3297 -73.0889 114° Southeast 330 380 10,300 -1,150 Descending Boston Center
Mon 08:49:44 PM 42.2908 -72.9789 116° Southeast 302 348 8,700 -1,500 Descending Boston Center
Mon 08:50:44 PM 42.2578 -72.8889 116° Southeast 297 342 7,300 -1,462 Descending Boston Center
Mon 08:51:02 PM 42.2414 -72.8494 119° Southeast 297 342 6,800 -1,400 Descending Boston Center
Mon 08:51:44 PM 42.2164 -72.7792 116° Southeast 297 342 5,900 -1,279 Descending Boston Center
Mon 08:52:03 PM 42.2083 -72.7542 114° Southeast 291 335 5,500 -1,200 Descending Boston Center
Mon 08:52:44 PM 42.1750 -72.7061 133° Southeast 286 329 4,700 -1,300 Descending Boston Center
Mon 08:53:03 PM 42.1522 -72.6781 138° Southeast 281 323 4,200 -1,300 Descending Boston Center
Mon 08:53:44 PM 42.1189 -72.6361 137° Southeast 279 321 3,400 -1,082 Descending Boston Center
Mon 08:54:04 PM 42.0981 -72.6108 138° Southeast 259 298 3,100 -900 Descending Boston Center
Mon 08:54:44 PM 42.0647 -72.5800 146° Southeast 246 283 2,500 -787 Descending Boston Center
Mon 08:55:05 PM 42.0461 -72.5769 173° South 205 236 2,300 -500 Descending Boston Center
Mon 08:55:44 PM 42.0211 -72.5853 194° South 178 205 2,000 -400 Descending Boston Center
Mon 08:56:05 PM 42.0086 -72.5967 214° Southwest 155 178 1,900 -600 Descending Boston Center
Mon 08:56:44 PM 41.9939 -72.6189 228° Southwest 140 161 1,400 -787 Descending Boston Center
Mon 08:57:06 PM 41.9814 -72.6300 213° Southwest 121 139 1,100 -700 Descending Boston Center
Mon 08:57:44 PM 41.9708 -72.6494 234° Southwest 129 148 700 -590 Descending Boston Center
Mon 08:58:07 PM 41.9583 -72.6606 213° Southwest 116 133 500 -500 Descending Boston Center
Mon 08:58:44 PM 41.9519 -72.6744 238° Southwest 124 143 200 -486 Descending Boston Center
Mon 09:00:00 PM 41.9333 -72.6833 202° Southwest  Level FlightAware Approximate
Mon 09:07:00 PM 41.9392 -72.6834 202° Southwest  Level Estimated
Mon 09:08:00 PM 41.9333 -72.6833 202° Southwest  Level FlightAware Approximate
Mon 09:09:00 PM 41.9392 -72.6834 202° Southwest  Level Estimated
Mon 09:10:00 PM 41.9333 -72.6833 202° Southwest  Level FlightAware Approximate

Login

Don't have an account? Register now (free) for customized features, flight alerts, and more!